ADDS METAR Data INFO
IDs: Format: Raw Decoded Include TAF

Data at: 1920 UTC 23 Apr 2018

KEKO 231856Z AUTO 24010KT 10SM CLR 15/M06 A3021 RMK AO2 SLP204 T01501056
KEKO 231756Z AUTO 27007KT 240V300 10SM CLR 14/M06 A3021 RMK AO2 SLP203 T01441056 10144 20000 53001
KEKO 231656Z AUTO 16003KT 10SM CLR 13/M04 A3021 RMK AO2 SLP201 T01331039
KEKO 231556Z AUTO 24006KT 10SM CLR 11/00 A3020 RMK AO2 SLP202 T01060000
KEKO 231456Z AUTO 22003KT 10SM CLR 07/00 A3021 RMK AO2 SLP209 T00670000 51015
KEKO 231356Z AUTO 00000KT 10SM CLR 03/M01 A3020 RMK AO2 SLP206 T00281011
KEKO 231256Z AUTO 00000KT 10SM CLR 03/M02 A3017 RMK AO2 SLP194 T00281017
KEKO 231156Z AUTO 00000KT 10SM CLR 03/M01 A3016 RMK AO2 SLP186 T00281006 10122 20022 53016
KEKO 231056Z AUTO 23003KT 10SM CLR 03/M01 A3014 RMK AO2 SLP178 T00281006
KEKO 230956Z AUTO 30003KT 10SM CLR 06/00 A3012 RMK AO2 SLP167 T00560000
KEKO 230856Z AUTO 00000KT 10SM CLR 06/00 A3010 RMK AO2 SLP162 T00560000 51016
KEKO 230756Z AUTO 23003KT 10SM CLR 08/00 A3009 RMK AO2 SLP154 T00830000 402440000
KEKO 230656Z AUTO 29003KT 10SM CLR 10/01 A3007 RMK AO2 SLP145 T01000011
KEKO 230556Z AUTO VRB03KT 10SM CLR 12/01 A3005 RMK AO2 SLP141 T01170006 10228 20111 51023
KEKO 230456Z AUTO 04005KT 10SM OVC110 13/01 A3004 RMK AO2 SLP143 T01330006
KEKO 230356Z AUTO 05009G19KT 10SM CLR 14/01 A3001 RMK AO2 SLP136 T01440006
KEKO 230256Z AUTO 32016KT 10SM SCT110 16/01 A2997 RMK AO2 SLP125 T01560006 53013
KEKO 230156Z AUTO 32016G20KT 10SM CLR 19/01 A2994 RMK AO2 SLP112 T01940011
KEKO 230056Z AUTO 28015KT 10SM CLR 22/00 A2993 RMK AO2 SLP108 T02170000
KEKO 222356Z AUTO 26014KT 10SM CLR 23/M01 A2993 RMK AO2 SLP109 T02281011 10244 20183 56021
KEKO 222256Z AUTO 27009G18KT 10SM CLR 23/M01 A2995 RMK AO2 SLP109 T02331006
KEKO 222156Z AUTO 24011G17KT 10SM FEW095 23/00 A2997 RMK AO2 SLP117 T02330000
KEKO 222056Z AUTO 23014KT 10SM CLR 23/M02 A3000 RMK AO2 SLP127 T02281022 56024
KEKO 221956Z AUTO VRB04KT 10SM CLR 22/02 A3002 RMK AO2 SLP135 T02220017
KEKO 221856Z AUTO VRB03KT 10SM CLR 21/02 A3006 RMK AO2 SLP146 T02060022
KEKO 221756Z AUTO 00000KT 10SM CLR 18/02 A3008 RMK AO2 SLP160 T01830017 10183 20006 58019
KEKO 221656Z AUTO 00000KT 10SM CLR 14/00 A3011 RMK AO2 SLP170 T01440000
KEKO 221556Z AUTO 00000KT 10SM CLR 11/00 A3013 RMK AO2 SLP180 T01110000
KEKO 221456Z AUTO 10003KT 10SM CLR 07/M01 A3015 RMK AO2 SLP190 T00671006 50002
KEKO 221356Z AUTO 07005KT 10SM CLR 04/M01 A3015 RMK AO2 SLP187 T00391011
KEKO 221256Z AUTO 00000KT 10SM CLR 02/M01 A3014 RMK AO2 SLP187 T00171011
KEKO 221156Z AUTO 20003KT 10SM CLR 00/M01 A3014 RMK AO2 SLP187 T00001011 10078 20000 50000
KEKO 221056Z AUTO 10004KT 10SM CLR 03/M01 A3014 RMK AO2 SLP183 T00331011
KEKO 220956Z AUTO 06004KT 10SM CLR 04/M01 A3014 RMK AO2 SLP182 T00391006
KEKO 220856Z AUTO 00000KT 10SM CLR 04/M01 A3014 RMK AO2 SLP180 T00441006 58005
KEKO 220756Z AUTO 00000KT 10SM CLR 05/M01 A3015 RMK AO2 SLP187 T00501006 402171017